Time;durP1;ratioP1;P1;durP2;ratioP2;P2;SDS_P1;SDS_P2;PMS_P1;PMS_P2;Temp;Humidity;BMP_temperature;BMP_pressure;BME280_temperature;BME280_humidity;BME280_pressure;Samples;Min_cycle;Max_cycle;Signal;HPM_P1;HPM_P2
2022/01/13 00:01:30;;;;;;;14.73;6.20;;;;;;;-5.98;97.71;91923.41;5091214;28;20031;-63
2022/01/13 00:03:57;;;;;;;11.98;6.55;;;;;;;-5.87;99.36;91929.81;5092292;28;20377;-64
2022/01/13 00:06:23;;;;;;;11.57;6.03;;;;;;;-5.85;99.76;91917.47;5094303;28;20429;-63
2022/01/13 00:08:48;;;;;;;12.25;5.47;;;;;;;-5.81;99.14;91926.50;5091135;28;20024;-63
2022/01/13 00:11:14;;;;;;;11.05;5.65;;;;;;;-5.81;96.29;91937.69;5091083;28;20024;-63
2022/01/13 00:13:50;;;;;;;11.68;6.78;;;;;;;-5.78;95.13;91934.72;5091013;28;20016;-63
2022/01/13 00:21:41;;;;;;;12.10;6.40;;;;;;;-5.93;99.00;91952.13;5091049;28;20130;-63
2022/01/13 00:24:11;;;;;;;14.32;7.60;;;;;;;-5.88;99.72;91954.94;5090911;28;20103;-63
2022/01/13 00:26:37;;;;;;;14.75;6.65;;;;;;;-5.99;99.35;91952.09;5090915;28;20557;-63
2022/01/13 00:29:03;;;;;;;13.57;6.35;;;;;;;-5.85;99.58;91957.16;5090984;28;20107;-63
2022/01/13 00:31:33;;;;;;;8.50;4.50;;;;;;;-5.84;100.00;91951.00;5090966;28;20032;-63
2022/01/13 00:34:06;;;;;;;8.13;4.65;;;;;;;-5.86;100.00;91960.72;5090822;28;20063;-63
2022/01/13 00:36:37;;;;;;;15.07;7.03;;;;;;;-5.74;99.06;91969.63;5090724;28;20028;-63
2022/01/13 00:39:08;;;;;;;12.45;7.03;;;;;;;-5.69;96.88;91968.25;5090883;28;20039;-63
2022/01/13 00:41:34;;;;;;;10.13;5.40;;;;;;;-5.74;94.75;91972.22;5090785;28;20502;-63
2022/01/13 00:44:03;;;;;;;9.90;5.80;;;;;;;-5.68;94.23;91986.25;5090748;28;20107;-63
2022/01/13 00:46:40;;;;;;;21.27;10.50;;;;;;;-5.66;93.39;91965.31;5090843;28;20086;-63
2022/01/13 00:49:06;;;;;;;14.43;7.13;;;;;;;-5.70;94.21;91977.03;5092903;28;20047;-63
2022/01/13 00:51:31;;;;;;;30.20;13.52;;;;;;;-5.73;94.63;91979.00;5094629;28;20024;-63
2022/01/13 00:54:03;;;;;;;8.75;5.15;;;;;;;-5.70;93.65;91971.84;5094492;28;20099;-63
2022/01/13 00:56:29;;;;;;;9.48;5.22;;;;;;;-5.62;92.05;91979.50;5094494;28;20032;-63
2022/01/13 00:58:54;;;;;;;18.48;8.77;;;;;;;-5.58;91.99;91975.53;5094759;28;20024;-63
2022/01/13 01:01:20;;;;;;;24.13;10.07;;;;;;;-5.50;91.51;91978.00;5094503;28;20032;-63
2022/01/13 01:03:45;;;;;;;24.77;9.73;;;;;;;-5.52;90.63;91972.22;5094312;28;20409;-63
2022/01/13 01:06:11;;;;;;;18.63;8.25;;;;;;;-5.49;91.28;91984.81;5094257;28;20044;-63
2022/01/13 01:08:37;;;;;;;10.45;8.10;;;;;;;-5.56;92.97;91987.31;5094332;28;20024;-63
2022/01/13 01:11:04;;;;;;;8.05;5.18;;;;;;;-5.68;98.54;91985.41;5094265;28;20028;-63
2022/01/13 01:13:33;;;;;;;11.63;6.00;;;;;;;-5.95;100.00;91987.78;5094252;28;20117;-63
2022/01/13 01:16:02;;;;;;;9.35;5.20;;;;;;;-6.05;100.00;91974.31;5094387;28;20024;-63
2022/01/13 01:19:13;;;;;;;9.98;5.40;;;;;;;-5.89;100.00;91988.81;5094066;28;20032;-63
2022/01/13 01:31:34;;;;;;;8.52;5.03;;;;;;;-6.05;98.86;91992.47;5094209;28;20491;-64
2022/01/13 01:36:28;;;;;;;9.50;5.10;;;;;;;-6.01;100.00;91988.50;5094003;28;20039;-62
2022/01/13 01:38:56;;;;;;;10.60;5.80;;;;;;;-6.13;100.00;91983.03;5093773;28;20036;-62
2022/01/13 01:41:22;;;;;;;9.82;5.50;;;;;;;-6.14;100.00;91990.97;5093669;28;20478;-62
2022/01/13 01:43:49;;;;;;;12.02;5.97;;;;;;;-6.20;100.00;91981.34;5093577;28;20063;-62
2022/01/13 01:46:14;;;;;;;11.13;5.93;;;;;;;-6.23;100.00;91995.44;5093686;28;20115;-62
2022/01/13 01:48:40;;;;;;;10.32;5.60;;;;;;;-6.12;100.00;91996.78;5094319;28;20165;-63
2022/01/13 01:51:07;;;;;;;11.30;6.00;;;;;;;-6.15;100.00;91994.56;5095315;28;20383;-63
2022/01/13 01:53:33;;;;;;;12.57;6.55;;;;;;;-6.13;100.00;91995.97;5093581;28;20047;-63
2022/01/13 01:55:58;;;;;;;10.35;6.50;;;;;;;-6.05;100.00;91990.66;5093359;28;20490;-63
2022/01/13 01:58:28;;;;;;;13.13;6.85;;;;;;;-6.05;100.00;91987.28;5093338;28;20016;-63
2022/01/13 02:00:55;;;;;;;12.27;6.13;;;;;;;-6.05;100.00;91979.50;5074990;28;20517;-63
2022/01/13 02:03:24;;;;;;;11.00;6.20;;;;;;;-6.05;100.00;91989.88;5092139;28;20100;-63
2022/01/13 02:05:49;;;;;;;10.65;5.80;;;;;;;-6.12;100.00;91981.25;5093066;28;20055;-63
2022/01/13 02:08:15;;;;;;;15.25;6.82;;;;;;;-6.07;100.00;91984.88;5093163;28;20028;-63
2022/01/13 02:10:42;;;;;;;14.27;6.18;;;;;;;-6.03;100.00;91993.88;5093098;28;20020;-63
2022/01/13 02:13:11;;;;;;;15.25;6.72;;;;;;;-6.04;100.00;91981.09;5092983;28;20042;-63
2022/01/13 02:15:49;;;;;;;13.98;6.47;;;;;;;-5.99;100.00;91971.03;5092999;28;20024;-63
2022/01/13 02:18:15;;;;;;;13.57;7.60;;;;;;;-6.07;100.00;91973.72;5093068;28;20410;-63
2022/01/13 02:20:54;;;;;;;17.65;7.65;;;;;;;-6.17;100.00;91966.22;5092957;28;20028;-63
2022/01/13 02:23:39;;;;;;;15.07;7.22;;;;;;;-6.08;100.00;91972.09;5092846;28;20032;-63
2022/01/13 02:26:09;;;;;;;15.02;8.40;;;;;;;-6.10;100.00;91956.75;5093067;28;20039;-63
2022/01/13 02:28:35;;;;;;;17.15;7.68;;;;;;;-6.14;100.00;91949.56;5092984;28;20028;-63
2022/01/13 02:31:01;;;;;;;16.70;9.02;;;;;;;-6.26;100.00;91951.81;5092711;28;20406;-63
2022/01/13 02:33:26;;;;;;;18.48;9.00;;;;;;;-6.30;100.00;91960.13;5092591;28;20032;-63
2022/01/13 02:35:52;;;;;;;17.40;8.18;;;;;;;-6.30;100.00;91954.97;5092575;28;20402;-63
2022/01/13 02:38:18;;;;;;;16.60;9.23;;;;;;;-6.30;100.00;91954.97;5092553;28;20038;-63
2022/01/13 02:40:44;;;;;;;19.98;8.85;;;;;;;-6.27;100.00;91949.41;5092536;28;20111;-63
2022/01/13 02:43:10;;;;;;;22.42;9.90;;;;;;;-6.22;100.00;91954.81;5092321;28;20039;-63
2022/01/13 02:45:39;;;;;;;24.10;10.40;;;;;;;-6.19;100.00;91960.44;5092435;28;20039;-63
2022/01/13 02:50:35;;;;;;;20.40;10.13;;;;;;;-6.27;100.00;91960.56;5092347;28;20031;-63
2022/01/13 02:53:03;;;;;;;22.83;11.30;;;;;;;-6.21;100.00;91953.84;5092246;28;20410;-63
2022/01/13 02:55:28;;;;;;;24.63;12.20;;;;;;;-6.19;100.00;91962.22;5092255;28;20028;-63
2022/01/13 02:57:54;;;;;;;23.63;10.52;;;;;;;-6.21;100.00;91962.41;5092175;28;20080;-63
2022/01/13 03:00:19;;;;;;;20.52;9.27;;;;;;;-6.18;100.00;91964.63;5092101;28;20115;-63
2022/01/13 03:02:47;;;;;;;19.08;9.65;;;;;;;-6.13;100.00;91956.34;5092031;28;20036;-63
2022/01/13 03:05:14;;;;;;;21.02;10.75;;;;;;;-6.11;100.00;91949.19;5098508;28;20048;-63
2022/01/13 03:07:40;;;;;;;18.15;9.20;;;;;;;-6.13;100.00;91953.75;5112310;28;20028;-62
2022/01/13 03:10:07;;;;;;;21.05;10.48;;;;;;;-6.15;100.00;91953.13;5112299;28;20035;-62
2022/01/13 03:12:36;;;;;;;19.58;9.82;;;;;;;-6.25;100.00;91950.03;5111597;28;20036;-62
2022/01/13 03:15:02;;;;;;;16.52;10.45;;;;;;;-6.33;100.00;91958.69;5112479;28;20023;-63
2022/01/13 03:17:27;;;;;;;18.63;8.60;;;;;;;-6.44;100.00;91954.00;5112104;28;20041;-63
2022/01/13 03:19:53;;;;;;;20.98;9.30;;;;;;;-6.38;100.00;91955.84;5112190;28;20096;-63
2022/01/13 03:22:18;;;;;;;16.75;8.15;;;;;;;-6.38;100.00;91950.69;5112062;28;20027;-62
2022/01/13 03:24:44;;;;;;;20.60;8.35;;;;;;;-6.43;100.00;91950.44;5112300;28;20156;-63
2022/01/13 03:27:18;;;;;;;21.13;8.48;;;;;;;-6.36;100.00;91951.28;5112054;28;20023;-63
2022/01/13 03:29:43;;;;;;;15.82;8.32;;;;;;;-6.33;100.00;91945.75;5112029;28;20028;-63
2022/01/13 03:32:09;;;;;;;16.83;8.30;;;;;;;-6.37;100.00;91947.09;5112035;28;20038;-63
2022/01/13 03:34:34;;;;;;;18.17;8.90;;;;;;;-6.30;100.00;91949.78;5115864;28;20038;-63
2022/01/13 03:37:00;;;;;;;18.35;8.63;;;;;;;-6.29;100.00;91935.84;5113465;28;20100;-63
2022/01/13 03:39:25;;;;;;;17.92;8.55;;;;;;;-6.14;100.00;91946.97;5111942;28;20031;-63
2022/01/13 03:41:51;;;;;;;16.33;8.25;;;;;;;-6.12;100.00;91948.38;5111729;28;20516;-63
2022/01/13 03:44:27;;;;;;;16.15;8.48;;;;;;;-6.11;100.00;91957.75;5111802;28;20042;-63
2022/01/13 03:46:52;;;;;;;16.50;8.45;;;;;;;-6.13;100.00;91951.16;5111667;28;20028;-63
2022/01/13 03:49:18;;;;;;;16.83;8.35;;;;;;;-6.10;100.00;91966.31;5111786;28;20065;-63
2022/01/13 03:51:55;;;;;;;18.52;9.30;;;;;;;-6.24;100.00;91972.34;5093332;28;20066;-64
2022/01/13 03:54:32;;;;;;;14.73;7.88;;;;;;;-6.31;100.00;91974.88;5111579;28;20020;-63
2022/01/13 03:57:22;;;;;;;16.58;8.70;;;;;;;-6.24;100.00;91983.50;5111512;28;20023;-63
2022/01/13 04:00:25;;;;;;;18.10;9.35;;;;;;;-6.32;100.00;91978.41;5111577;28;20100;-63
2022/01/13 04:02:51;;;;;;;25.07;10.57;;;;;;;-6.52;100.00;91978.19;5111772;28;20025;-63
2022/01/13 04:05:16;;;;;;;20.65;9.90;;;;;;;-6.55;100.00;91975.97;5111277;28;20606;-63
2022/01/13 04:07:42;;;;;;;33.80;14.60;;;;;;;-6.56;100.00;91976.94;5111478;28;20099;-63
2022/01/13 04:10:23;;;;;;;23.95;10.35;;;;;;;-6.51;100.00;91984.97;5111463;28;20031;-63
2022/01/13 04:12:49;;;;;;;17.17;9.57;;;;;;;-6.59;100.00;91982.50;5111344;28;20084;-63
2022/01/13 04:15:15;;;;;;;19.10;9.40;;;;;;;-6.63;100.00;91976.06;5093081;28;20035;-63
2022/01/13 04:17:41;;;;;;;17.98;9.40;;;;;;;-6.57;100.00;91980.53;5111545;28;20095;-63
2022/01/13 04:20:08;;;;;;;18.10;9.20;;;;;;;-6.49;100.00;91983.00;5111322;28;20127;-63
2022/01/13 04:22:33;;;;;;;18.15;10.27;;;;;;;-6.51;100.00;91977.19;5111284;28;20468;-63
2022/01/13 04:24:59;;;;;;;19.35;9.77;;;;;;;-6.55;100.00;91978.56;5114855;28;20024;-63
2022/01/13 04:27:31;;;;;;;19.13;10.25;;;;;;;-6.62;100.00;91982.06;5115542;28;20026;-63
2022/01/13 04:32:46;;;;;;;21.80;10.15;;;;;;;-6.72;100.00;91988.28;5076821;28;20043;-63
2022/01/13 04:35:11;;;;;;;18.73;9.55;;;;;;;-6.73;100.00;91998.81;5114336;28;20039;-63
2022/01/13 04:37:37;;;;;;;20.65;9.68;;;;;;;-6.61;100.00;92002.56;5115232;28;20500;-63
2022/01/13 04:40:05;;;;;;;20.60;11.90;;;;;;;-6.69;100.00;92002.66;5115235;28;20032;-63
2022/01/13 04:42:35;;;;;;;22.58;10.48;;;;;;;-6.65;100.00;92009.06;5115020;28;20026;-63
2022/01/13 04:45:03;;;;;;;19.65;10.57;;;;;;;-6.70;100.00;91978.56;5115048;28;20378;-63
2022/01/13 04:47:29;;;;;;;24.27;10.77;;;;;;;-6.53;100.00;92004.25;5115009;28;20505;-63
2022/01/13 04:49:54;;;;;;;22.20;12.13;;;;;;;-6.65;100.00;92009.06;5114803;28;20172;-63
2022/01/13 04:52:20;;;;;;;19.27;10.38;;;;;;;-6.83;100.00;92006.84;5114711;28;20461;-63
2022/01/13 04:54:45;;;;;;;24.00;10.65;;;;;;;-6.90;100.00;92018.91;5114915;28;20485;-63
2022/01/13 04:57:17;;;;;;;23.30;11.45;;;;;;;-6.79;100.00;92017.63;5114858;28;20027;-63
2022/01/13 04:59:44;;;;;;;19.15;8.68;;;;;;;-6.84;100.00;92019.97;5114939;28;20030;-63
2022/01/13 05:02:09;;;;;;;21.48;9.73;;;;;;;-6.79;100.00;92023.63;5114685;28;20024;-63
2022/01/13 05:04:35;;;;;;;20.50;10.73;;;;;;;-6.54;100.00;92020.75;5114633;28;20031;-63
2022/01/13 05:07:00;;;;;;;20.25;9.05;;;;;;;-6.52;100.00;92023.97;5114723;28;20039;-63
2022/01/13 05:09:26;;;;;;;18.60;10.15;;;;;;;-6.60;100.00;92018.91;5114773;28;20024;-63
2022/01/13 05:11:51;;;;;;;19.52;9.55;;;;;;;-6.54;100.00;92013.81;5114591;28;20474;-63
2022/01/13 05:14:17;;;;;;;18.83;10.93;;;;;;;-6.69;100.00;92006.03;5114599;28;20031;-63
2022/01/13 05:19:18;;;;;;;21.05;10.48;;;;;;;-6.72;100.00;92010.78;5125889;28;20059;-63
2022/01/13 05:24:09;;;;;;;19.17;10.00;;;;;;;-6.76;100.00;92012.13;5114594;28;20088;-63
2022/01/13 05:26:34;;;;;;;21.27;10.43;;;;;;;-6.75;100.00;92018.91;5114395;28;20346;-62
2022/01/13 05:29:00;;;;;;;21.83;11.35;;;;;;;-6.81;100.00;92017.81;5114394;28;20485;-63
2022/01/13 05:31:25;;;;;;;24.70;11.57;;;;;;;-6.81;100.00;92017.81;5114686;28;20036;-63
2022/01/13 05:33:51;;;;;;;18.17;8.57;;;;;;;-6.91;100.00;92024.25;5113693;28;20076;-63
2022/01/13 05:36:16;;;;;;;31.05;13.13;;;;;;;-6.84;100.00;92020.75;5114081;28;20477;-63
2022/01/13 05:38:42;;;;;;;21.60;10.57;;;;;;;-6.82;100.00;92023.97;5114362;28;20027;-63
2022/01/13 05:41:09;;;;;;;20.02;10.35;;;;;;;-6.96;100.00;92025.56;5114136;28;20054;-63
2022/01/13 05:43:35;;;;;;;50.30;24.55;;;;;;;-6.83;100.00;92022.38;5113894;28;20028;-63
2022/01/13 05:46:00;;;;;;;19.30;10.20;;;;;;;-6.86;100.00;92027.09;5114088;28;20172;-63
2022/01/13 05:48:26;;;;;;;22.10;9.88;;;;;;;-6.96;100.00;92038.50;5114106;28;20031;-63
2022/01/13 05:50:51;;;;;;;25.27;12.55;;;;;;;-6.78;100.00;92032.22;5114068;28;20039;-63
2022/01/13 05:53:17;;;;;;;23.45;12.00;;;;;;;-6.74;100.00;92030.88;5113842;28;20031;-63
2022/01/13 05:55:43;;;;;;;32.78;15.02;;;;;;;-6.79;100.00;92033.16;5114060;28;20039;-63
2022/01/13 05:58:09;;;;;;;22.33;9.43;;;;;;;-6.70;100.00;92032.91;5113764;28;20424;-63
2022/01/13 06:00:35;;;;;;;27.27;12.23;;;;;;;-6.64;100.00;92034.75;5113795;28;20032;-63
2022/01/13 06:03:01;;;;;;;37.25;16.88;;;;;;;-6.53;100.00;92045.66;5113700;28;20566;-63
2022/01/13 06:05:26;;;;;;;59.08;29.75;;;;;;;-6.62;100.00;92050.13;5113487;28;20083;-64
2022/01/13 06:07:53;;;;;;;27.20;14.95;;;;;;;-6.61;100.00;92051.75;5113654;28;20405;-63
2022/01/13 06:10:19;;;;;;;25.55;13.30;;;;;;;-6.65;100.00;92053.06;5113621;28;20035;-63
2022/01/13 06:12:49;;;;;;;27.90;12.85;;;;;;;-6.70;100.00;92071.72;5113688;28;20080;-63
2022/01/13 06:15:18;;;;;;;32.50;16.55;;;;;;;-6.69;100.00;92059.59;5113541;28;20038;-63
2022/01/13 06:17:44;;;;;;;42.58;20.13;;;;;;;-6.65;100.00;92071.19;5113397;28;20029;-63
2022/01/13 06:20:12;;;;;;;43.15;22.52;;;;;;;-6.64;100.00;92067.59;5113398;28;20037;-63
2022/01/13 06:22:39;;;;;;;30.48;14.77;;;;;;;-6.74;100.00;92064.50;5113223;28;20028;-63
2022/01/13 06:25:07;;;;;;;31.13;15.52;;;;;;;-6.62;100.00;92070.03;5113255;28;20027;-63
2022/01/13 06:27:32;;;;;;;29.88;15.75;;;;;;;-6.72;100.00;92075.47;5113155;28;20096;-63
2022/01/13 06:29:58;;;;;;;77.10;28.38;;;;;;;-6.73;100.00;92072.06;5113216;28;20857;-63
2022/01/13 06:32:24;;;;;;;93.80;36.08;;;;;;;-6.90;100.00;92082.75;5113036;28;20039;-63
2022/01/13 06:34:51;;;;;;;27.83;13.23;;;;;;;-6.94;100.00;92077.16;5113242;28;20027;-63
2022/01/13 06:37:17;;;;;;;22.30;10.55;;;;;;;-6.80;100.00;92084.09;5112916;28;20020;-63
2022/01/13 06:39:43;;;;;;;23.30;11.57;;;;;;;-6.72;100.00;92091.00;5112999;28;20115;-63
2022/01/13 06:42:09;;;;;;;42.22;17.80;;;;;;;-6.68;100.00;92092.25;5112835;28;20039;-63
2022/01/13 06:44:35;;;;;;;21.52;11.32;;;;;;;-6.66;100.00;92090.28;5112683;28;20492;-63
2022/01/13 06:47:01;;;;;;;20.85;9.90;;;;;;;-6.76;100.00;92085.38;5111999;28;20072;-63
2022/01/13 06:49:26;;;;;;;26.08;11.65;;;;;;;-6.71;100.00;92077.06;5112759;28;20118;-63
2022/01/13 06:51:51;;;;;;;28.70;11.77;;;;;;;-6.57;100.00;92078.88;5112673;28;20038;-63
2022/01/13 06:54:17;;;;;;;22.95;11.20;;;;;;;-6.44;100.00;92081.63;5112652;28;20054;-63
2022/01/13 06:56:42;;;;;;;36.70;13.70;;;;;;;-6.45;100.00;92079.22;5112480;28;20091;-63
2022/01/13 06:59:12;;;;;;;35.25;14.35;;;;;;;-6.31;100.00;92072.41;5112381;28;20391;-63
2022/01/13 07:01:39;;;;;;;60.90;29.08;;;;;;;-6.26;100.00;92086.44;5112398;28;20084;-63
2022/01/13 07:04:08;;;;;;;32.17;15.88;;;;;;;-6.15;100.00;92085.19;5116504;28;20473;-63
2022/01/13 07:06:34;;;;;;;32.63;15.05;;;;;;;-6.18;100.00;92080.34;5112997;28;20112;-62
2022/01/13 07:08:59;;;;;;;22.67;11.70;;;;;;;-5.95;100.00;92088.81;5112451;28;20102;-63
2022/01/13 07:11:25;;;;;;;23.80;11.10;;;;;;;-5.84;100.00;92090.09;5112459;28;20023;-63
2022/01/13 07:13:50;;;;;;;26.27;13.23;;;;;;;-5.97;100.00;92085.63;5112368;28;20027;-63
2022/01/13 07:16:16;;;;;;;31.15;17.17;;;;;;;-5.84;100.00;92090.09;5112206;28;20473;-63
2022/01/13 07:18:41;;;;;;;19.35;11.63;;;;;;;-5.84;100.00;92090.94;5112189;28;20033;-63
2022/01/13 07:21:09;;;;;;;29.90;14.63;;;;;;;-5.94;100.00;92087.84;5112088;28;20045;-63
2022/01/13 07:23:35;;;;;;;36.50;15.75;;;;;;;-6.10;100.00;92088.03;5111882;28;20485;-63
2022/01/13 07:26:02;;;;;;;74.47;29.52;;;;;;;-5.84;100.00;92085.75;5112006;28;20034;-63
2022/01/13 07:28:30;;;;;;;385.15;109.57;;;;;;;-5.47;100.00;92086.53;5111785;28;20032;-62
2022/01/13 07:30:57;;;;;;;62.50;24.65;;;;;;;-5.31;100.00;92095.84;5111929;28;20027;-63
2022/01/13 07:33:23;;;;;;;381.55;120.18;;;;;;;-5.30;100.00;92103.44;5111340;28;20019;-63
2022/01/13 07:35:49;;;;;;;91.75;35.38;;;;;;;-5.32;100.00;92105.44;5111058;28;20032;-63
2022/01/13 07:38:16;;;;;;;27.33;13.13;;;;;;;-5.52;100.00;92105.22;5108250;28;20016;-63
2022/01/13 07:40:41;;;;;;;35.95;15.95;;;;;;;-5.53;100.00;92107.97;5110963;28;20098;-62
2022/01/13 07:43:07;;;;;;;46.05;23.88;;;;;;;-5.49;100.00;92115.22;5110909;28;20520;-62
2022/01/13 07:45:33;;;;;;;17.85;9.38;;;;;;;-5.68;98.22;92122.75;5111169;28;20032;-62
2022/01/13 07:47:58;;;;;;;28.67;14.85;;;;;;;-5.26;98.90;92119.44;5111578;28;20421;-62
2022/01/13 07:50:24;;;;;;;59.25;24.50;;;;;;;-4.97;98.69;92123.69;5110360;28;20022;-63
2022/01/13 07:52:49;;;;;;;63.67;26.27;;;;;;;-5.04;96.86;92122.84;5111238;28;20477;-62
2022/01/13 07:55:15;;;;;;;74.50;29.13;;;;;;;-5.27;100.00;92129.00;5111554;28;20066;-62
2022/01/13 07:57:41;;;;;;;50.10;19.77;;;;;;;-5.43;100.00;92126.66;5111198;28;20031;-62
2022/01/13 08:00:09;;;;;;;55.92;26.88;;;;;;;-5.42;100.00;92131.66;5110782;28;20026;-63
2022/01/13 08:02:34;;;;;;;62.42;34.83;;;;;;;-5.55;100.00;92136.69;5109920;28;20084;-63
2022/01/13 08:05:00;;;;;;;33.65;19.00;;;;;;;-5.50;100.00;92107.63;5094310;28;20498;-66
2022/01/13 08:07:25;;;;;;;24.88;12.77;;;;;;;-5.26;97.62;92133.22;5093873;28;20047;-64
2022/01/13 08:09:51;;;;;;;35.30;18.65;;;;;;;-5.02;96.02;92126.06;5110974;28;20076;-64
2022/01/13 08:12:17;;;;;;;67.78;31.15;;;;;;;-4.77;93.07;92129.84;5110859;28;20056;-64
2022/01/13 08:14:42;;;;;;;69.70;32.30;;;;;;;-4.51;94.50;92121.47;5110779;28;20116;-63
2022/01/13 08:17:18;;;;;;;90.85;36.30;;;;;;;-3.78;90.23;92124.50;5110832;28;20840;-64
2022/01/13 08:19:46;;;;;;;24.70;12.27;;;;;;;-3.46;84.18;92123.03;5110743;28;20031;-64
2022/01/13 08:22:13;;;;;;;23.83;13.20;;;;;;;-3.13;80.69;92123.13;5110371;28;20027;-64
2022/01/13 08:24:38;;;;;;;19.17;10.70;;;;;;;-2.59;76.72;92140.41;5110630;28;20640;-64
2022/01/13 08:27:05;;;;;;;20.02;10.43;;;;;;;-2.44;74.59;92134.00;5110951;28;20031;-64
2022/01/13 08:29:30;;;;;;;22.88;10.32;;;;;;;-3.04;75.75;92153.16;5110941;28;20494;-63
2022/01/13 08:31:56;;;;;;;23.67;11.43;;;;;;;-3.27;74.96;92147.50;5110034;28;20173;-64
2022/01/13 08:34:21;;;;;;;18.92;10.50;;;;;;;-3.11;74.64;92147.16;5109741;28;20070;-65
2022/01/13 08:36:47;;;;;;;19.17;11.20;;;;;;;-2.98;74.35;92165.41;5110459;28;20020;-64
2022/01/13 08:39:12;;;;;;;29.08;14.70;;;;;;;-3.56;74.76;92156.41;5110668;28;20099;-64
2022/01/13 08:41:39;;;;;;;24.55;13.38;;;;;;;-3.73;79.60;92155.94;5110162;28;20032;-64
2022/01/13 08:44:05;;;;;;;39.28;20.33;;;;;;;-3.35;77.72;92154.47;5110014;28;20096;-64
2022/01/13 08:46:30;;;;;;;26.92;13.50;;;;;;;-3.39;75.56;92166.28;5110172;28;20035;-64
2022/01/13 08:48:56;;;;;;;31.67;16.52;;;;;;;-3.02;77.95;92177.19;5111439;28;20032;-65
2022/01/13 08:51:21;;;;;;;33.35;16.42;;;;;;;-3.02;77.92;92169.38;5117981;28;20095;-64
2022/01/13 08:53:48;;;;;;;28.58;12.75;;;;;;;-3.89;79.71;92171.84;5115667;28;20466;-64
2022/01/13 08:56:14;;;;;;;35.45;15.32;;;;;;;-4.49;83.17;92161.03;5110469;28;20570;-64
2022/01/13 08:58:40;;;;;;;29.38;14.68;;;;;;;-3.78;82.21;92171.31;5110659;28;20024;-64
2022/01/13 09:01:07;;;;;;;38.90;16.88;;;;;;;-4.29;83.53;92161.97;5110770;28;20409;-65
2022/01/13 09:03:35;;;;;;;84.63;36.40;;;;;;;-4.29;86.61;92158.59;5110276;28;20090;-64
2022/01/13 09:06:02;;;;;;;60.30;26.77;;;;;;;-4.11;85.20;92169.28;5110644;28;20142;-64
2022/01/13 09:08:28;;;;;;;30.75;17.15;;;;;;;-4.47;86.49;92173.84;5110689;28;20031;-64
2022/01/13 09:10:53;;;;;;;50.20;21.02;;;;;;;-4.65;91.74;92172.50;5113688;28;20420;-64
2022/01/13 09:13:19;;;;;;;33.72;16.33;;;;;;;-4.83;91.03;92161.75;5114319;28;20081;-64
2022/01/13 09:16:20;;;;;;;19.92;10.27;;;;;;;-5.12;91.29;92167.88;5114370;28;20035;-64
2022/01/13 09:18:58;;;;;;;34.17;19.02;;;;;;;-4.67;89.53;92151.13;5109649;28;20047;-64
2022/01/13 09:21:26;;;;;;;24.55;12.57;;;;;;;-4.36;89.40;92158.53;5114125;28;20035;-63
2022/01/13 09:23:52;;;;;;;47.72;22.55;;;;;;;-4.43;88.33;92162.88;5114117;28;20382;-63
2022/01/13 09:26:18;;;;;;;18.98;9.73;;;;;;;-4.36;86.33;92158.53;5114335;28;20052;-64
2022/01/13 09:28:43;;;;;;;28.65;15.93;;;;;;;-3.49;85.62;92155.41;5114127;28;20497;-63
2022/01/13 09:31:09;;;;;;;50.63;25.02;;;;;;;-3.29;83.92;92150.31;5114092;28;20497;-64
2022/01/13 09:33:34;;;;;;;62.85;29.00;;;;;;;-2.98;80.23;92138.59;5113820;28;20028;-63
2022/01/13 09:36:01;;;;;;;59.22;27.63;;;;;;;-0.41;74.27;92150.13;5114088;28;20024;-63
2022/01/13 09:38:27;;;;;;;17.70;10.20;;;;;;;1.64;60.93;92145.25;5110690;28;20038;-64
2022/01/13 09:40:53;;;;;;;40.00;17.70;;;;;;;3.91;55.71;92137.09;5113949;28;20036;-64
2022/01/13 09:43:25;;;;;;;28.17;15.60;;;;;;;2.91;53.41;92140.25;5113799;28;20042;-64
2022/01/13 09:45:51;;;;;;;19.23;9.57;;;;;;;3.88;53.44;92138.34;5113619;28;20038;-63
2022/01/13 09:48:17;;;;;;;17.30;9.40;;;;;;;4.00;50.88;92126.97;5113462;28;20122;-63
2022/01/13 09:50:45;;;;;;;31.80;16.20;;;;;;;8.11;45.52;92125.22;5113668;28;20098;-64
2022/01/13 09:53:12;;;;;;;20.33;12.57;;;;;;;8.63;43.01;92115.44;5113834;28;20451;-64
2022/01/13 09:55:38;;;;;;;21.73;12.70;;;;;;;10.26;39.26;92115.63;5113776;28;20106;-63
2022/01/13 09:58:10;;;;;;;36.97;19.20;;;;;;;10.61;37.11;92100.44;5113556;28;20110;-64
2022/01/13 10:00:37;;;;;;;18.55;11.35;;;;;;;9.96;37.91;92105.16;5113657;28;20107;-64
2022/01/13 10:03:14;;;;;;;25.13;14.75;;;;;;;9.98;36.63;92109.13;5112994;28;20052;-65
2022/01/13 10:05:51;;;;;;;20.00;12.82;;;;;;;10.34;36.96;92096.38;5113243;28;20082;-64
2022/01/13 10:08:39;;;;;;;29.95;17.83;;;;;;;9.25;36.34;92103.63;5113254;28;20050;-64
2022/01/13 10:11:24;;;;;;;134.32;72.22;;;;;;;8.66;41.31;92094.47;5112186;28;20429;-64
2022/01/13 10:14:07;;;;;;;20.63;11.68;;;;;;;6.64;43.52;92079.75;5113128;28;20034;-64
2022/01/13 10:16:33;;;;;;;13.57;9.20;;;;;;;7.38;40.89;92086.66;5112622;28;20035;-64
2022/01/13 10:18:59;;;;;;;18.25;10.48;;;;;;;7.62;41.09;92085.16;5113138;28;20046;-64
2022/01/13 10:21:25;;;;;;;21.70;12.93;;;;;;;7.94;39.30;92065.59;5113104;28;20023;-63
2022/01/13 10:24:12;;;;;;;16.25;10.35;;;;;;;5.64;47.73;92074.19;5113107;28;20023;-63
2022/01/13 10:26:39;;;;;;;12.93;8.15;;;;;;;6.71;44.96;92056.50;5112978;28;20035;-64
2022/01/13 10:29:07;;;;;;;68.72;23.65;;;;;;;7.47;46.11;92056.78;5113048;28;20080;-63
2022/01/13 10:31:50;;;;;;;19.75;10.02;;;;;;;7.05;44.93;92059.56;5112539;28;20385;-63
2022/01/13 10:34:22;;;;;;;66.50;24.83;;;;;;;6.96;45.05;92053.19;5112894;28;20490;-63
2022/01/13 10:37:13;;;;;;;17.95;10.57;;;;;;;6.53;46.18;92056.94;5114167;28;20035;-63
2022/01/13 10:40:02;;;;;;;19.05;11.82;;;;;;;5.95;45.28;92048.09;5122415;28;20058;-63
2022/01/13 10:45:20;;;;;;;36.33;16.95;;;;;;;6.79;45.71;92031.44;5112683;28;20442;-63
2022/01/13 10:47:59;;;;;;;23.35;13.75;;;;;;;5.87;44.21;92011.56;5112470;28;20111;-63
2022/01/13 10:50:31;;;;;;;31.98;14.70;;;;;;;8.02;42.59;92012.06;5112677;28;20034;-63
2022/01/13 10:53:06;;;;;;;32.85;18.60;;;;;;;9.13;39.62;92008.34;5112553;28;20102;-64
2022/01/13 10:55:36;;;;;;;13.43;8.85;;;;;;;10.17;37.90;92005.53;5112469;28;20054;-62
2022/01/13 10:58:02;;;;;;;15.05;10.57;;;;;;;9.54;38.36;92003.63;5112412;28;20507;-64
2022/01/13 11:00:30;;;;;;;14.23;10.10;;;;;;;7.53;40.46;92007.28;5112616;28;20443;-64
2022/01/13 11:03:01;;;;;;;14.23;9.90;;;;;;;6.94;43.83;92004.22;5111815;28;20043;-63
2022/01/13 11:05:28;;;;;;;14.88;8.50;;;;;;;7.57;42.18;91994.28;5112335;28;20047;-63
2022/01/13 11:07:56;;;;;;;53.17;20.77;;;;;;;6.54;42.23;91989.78;5112307;28;20073;-64
2022/01/13 11:10:22;;;;;;;47.53;20.42;;;;;;;7.05;41.54;91989.97;5112007;28;20434;-63
2022/01/13 11:12:55;;;;;;;18.85;11.43;;;;;;;7.92;42.66;91989.03;5112191;28;20028;-64
2022/01/13 11:15:21;;;;;;;18.52;11.82;;;;;;;6.76;42.19;91976.38;5112124;28;20027;-64
2022/01/13 11:17:49;;;;;;;24.58;13.73;;;;;;;7.67;42.09;91984.50;5111800;28;20030;-64
2022/01/13 11:20:20;;;;;;;20.75;13.27;;;;;;;6.60;41.89;91991.41;5111980;28;20070;-64
2022/01/13 11:22:51;;;;;;;21.55;11.50;;;;;;;2.86;50.33;91985.09;5111781;28;20516;-63
2022/01/13 11:25:20;;;;;;;19.67;9.90;;;;;;;1.59;52.67;91977.31;5112018;28;20452;-65
2022/01/13 11:27:46;;;;;;;20.17;12.20;;;;;;;0.99;55.56;91987.94;5111920;28;20100;-65
2022/01/13 11:30:15;;;;;;;26.45;14.45;;;;;;;1.57;55.29;91995.84;5111882;28;20470;-66
2022/01/13 11:32:46;;;;;;;36.08;17.63;;;;;;;1.90;54.65;92000.56;5110782;28;20051;-64
2022/01/13 11:35:18;;;;;;;31.33;16.27;;;;;;;1.19;55.16;92004.94;5111688;28;20031;-63
2022/01/13 11:37:44;;;;;;;17.83;10.07;;;;;;;1.83;54.41;92004.31;5111762;28;20031;-63
2022/01/13 11:40:28;;;;;;;48.28;26.17;;;;;;;1.86;53.61;92002.00;5111741;28;20069;-65
2022/01/13 11:42:55;;;;;;;24.05;15.23;;;;;;;2.52;54.46;92002.56;5111787;28;20111;-65
2022/01/13 11:45:22;;;;;;;27.83;15.43;;;;;;;2.16;54.76;92014.19;5111505;28;20489;-65
2022/01/13 11:47:48;;;;;;;22.30;12.30;;;;;;;2.82;54.17;92010.22;5111564;28;20193;-65
2022/01/13 11:50:23;;;;;;;30.15;17.55;;;;;;;3.07;50.94;92008.06;5111517;28;20042;-65
2022/01/13 11:52:53;;;;;;;29.00;16.85;;;;;;;3.32;50.06;92004.31;5109763;28;20118;-65